Aviation Digital Data Service (ADDS)

Output produced by TAFs form (0426 UTC 22 September 2017)
found at http://www.aviationweather.gov/adds/tafs/
 
METAR text: RJDC 220400Z 07009KT 9999 -SHRA FEW008 SCT020 BKN030 23/19 Q1011
Conditions at: RJDC (YAMAGUCHI/UBE AR, JP) observed 0400 UTC 22 September 2017
Temperature: 23.0°C (73°F)
Dewpoint: 19.0°C (66°F) [RH = 78%]
Pressure (altimeter): 29.85 inches Hg (1011.0 mb)
Winds: from the ENE (70 degrees) at 10 MPH (9 knots; 4.7 m/s)
Visibility: 6 or more miles (10+ km)
Ceiling: 3000 feet AGL
Clouds: few clouds at 800 feet AGL
scattered clouds at 2000 feet AGL
broken clouds at 3000 feet AGL
Weather: -SHRA  (light rain showers)